createdAt,value
2023-01-13T00:00:05.555Z,993.81
2023-01-13T00:01:05.405Z,993.88
2023-01-13T00:02:05.486Z,993.85
2023-01-13T00:03:05.396Z,993.78
2023-01-13T00:04:05.377Z,993.73
2023-01-13T00:05:05.454Z,993.75
2023-01-13T00:06:05.359Z,993.77
2023-01-13T00:07:05.354Z,993.73
2023-01-13T00:08:06.338Z,993.75
2023-01-13T00:09:05.335Z,993.77
2023-01-13T00:10:06.293Z,993.84
2023-01-13T00:11:05.292Z,993.83
2023-01-13T00:12:05.302Z,993.75
2023-01-13T00:13:05.255Z,993.78
2023-01-13T00:14:05.256Z,993.82
2023-01-13T00:15:05.254Z,993.78
2023-01-13T00:16:05.319Z,993.83
2023-01-13T00:17:05.271Z,993.82
2023-01-13T00:18:06.210Z,993.79
2023-01-13T00:19:06.179Z,993.86
2023-01-13T00:20:05.193Z,993.76
2023-01-13T00:21:05.199Z,993.91
2023-01-13T00:22:05.150Z,993.80
2023-01-13T00:23:06.207Z,993.85
2023-01-13T00:24:05.144Z,993.81
2023-01-13T00:25:05.136Z,993.84
2023-01-13T00:26:06.138Z,993.73
2023-01-13T00:27:05.107Z,993.89
2023-01-13T00:28:06.110Z,993.80
2023-01-13T00:29:05.467Z,993.81
2023-01-13T00:30:05.065Z,993.79
2023-01-13T00:31:05.162Z,993.81
2023-01-13T00:32:05.094Z,993.71
2023-01-13T00:33:05.043Z,993.69
2023-01-13T00:34:05.037Z,993.77
2023-01-13T00:35:05.035Z,993.70
2023-01-13T00:36:04.999Z,993.79
2023-01-13T00:37:05.011Z,993.79
2023-01-13T00:38:05.024Z,993.82
2023-01-13T00:39:04.971Z,993.80
2023-01-13T00:40:05.980Z,993.74
2023-01-13T00:41:05.961Z,993.79
2023-01-13T00:42:04.942Z,993.79
2023-01-13T00:43:04.942Z,993.78
2023-01-13T00:44:04.976Z,993.80
2023-01-13T00:45:04.901Z,993.70
2023-01-13T00:46:05.004Z,993.76
2023-01-13T00:47:04.892Z,993.72
2023-01-13T00:48:05.909Z,993.77
2023-01-13T00:49:04.880Z,993.70
2023-01-13T00:50:05.897Z,993.65
2023-01-13T00:51:05.903Z,993.59
2023-01-13T00:52:04.829Z,993.65
2023-01-13T00:53:04.811Z,993.67
2023-01-13T00:54:05.820Z,993.69
2023-01-13T00:55:04.813Z,993.60
2023-01-13T00:56:04.821Z,993.60
2023-01-13T00:57:04.791Z,993.70
2023-01-13T00:58:04.757Z,993.65
2023-01-13T00:59:05.797Z,993.58
2023-01-13T01:00:04.770Z,993.60
2023-01-13T01:01:04.921Z,993.63
2023-01-13T01:02:04.891Z,993.60
2023-01-13T01:03:05.740Z,993.64
2023-01-13T01:04:05.698Z,993.67
2023-01-13T01:05:04.683Z,993.61
2023-01-13T01:06:04.712Z,993.54
2023-01-13T01:07:04.680Z,993.61
2023-01-13T01:08:04.702Z,993.57
2023-01-13T01:09:04.641Z,993.57
2023-01-13T01:10:04.642Z,993.48
2023-01-13T01:11:04.660Z,993.49
2023-01-13T01:12:04.638Z,993.57
2023-01-13T01:13:04.592Z,993.59
2023-01-13T01:14:04.628Z,993.57
2023-01-13T01:15:04.595Z,993.58
2023-01-13T01:16:04.682Z,993.58
2023-01-13T01:17:04.559Z,993.66
2023-01-13T01:18:04.541Z,993.54
2023-01-13T01:19:04.558Z,993.57
2023-01-13T01:20:04.527Z,993.60
2023-01-13T01:21:05.509Z,993.57
2023-01-13T01:22:05.507Z,993.53
2023-01-13T01:23:04.500Z,993.53
2023-01-13T01:24:04.496Z,993.56
2023-01-13T01:25:04.504Z,993.55
2023-01-13T01:26:05.472Z,993.53
2023-01-13T01:27:04.435Z,993.54
2023-01-13T01:28:04.475Z,993.55
2023-01-13T01:29:04.442Z,993.60
2023-01-13T01:30:04.424Z,993.58
2023-01-13T01:31:04.419Z,993.56
2023-01-13T01:32:04.397Z,993.56
2023-01-13T01:33:04.388Z,993.55
2023-01-13T01:34:04.419Z,993.53
2023-01-13T01:35:04.361Z,993.53
2023-01-13T01:36:04.368Z,993.49
2023-01-13T01:37:04.330Z,993.51
2023-01-13T01:38:04.333Z,993.54
2023-01-13T01:39:04.326Z,993.57
2023-01-13T01:40:04.324Z,993.46
2023-01-13T01:41:04.297Z,993.48
2023-01-13T01:42:04.303Z,993.45
2023-01-13T01:43:04.324Z,993.43
2023-01-13T01:44:04.306Z,993.47
2023-01-13T01:45:05.260Z,993.42
2023-01-13T01:46:04.231Z,993.41
2023-01-13T01:47:04.309Z,993.41
2023-01-13T01:48:04.219Z,993.41
2023-01-13T01:49:04.199Z,993.42
2023-01-13T01:50:04.213Z,993.36
2023-01-13T01:51:04.202Z,993.36
2023-01-13T01:52:04.214Z,993.27
2023-01-13T01:53:04.185Z,993.36
2023-01-13T01:54:04.141Z,993.31
2023-01-13T01:55:04.132Z,993.31
2023-01-13T01:56:04.133Z,993.32
2023-01-13T01:57:05.150Z,993.33
2023-01-13T01:58:05.098Z,993.31
2023-01-13T01:59:04.080Z,993.24
2023-01-13T02:00:04.081Z,993.27
2023-01-13T02:01:04.293Z,993.28
2023-01-13T02:02:04.151Z,993.24
2023-01-13T02:03:04.074Z,993.27
2023-01-13T02:04:04.056Z,993.16
2023-01-13T02:05:04.019Z,993.17
2023-01-13T02:06:04.026Z,993.27
2023-01-13T02:07:03.996Z,993.17
2023-01-13T02:08:04.033Z,993.16
2023-01-13T02:09:03.975Z,993.14
2023-01-13T02:10:04.964Z,993.11
2023-01-13T02:11:03.952Z,993.11
2023-01-13T02:12:03.948Z,993.11
2023-01-13T02:13:03.928Z,993.01
2023-01-13T02:14:03.934Z,993.04
2023-01-13T02:15:03.908Z,992.98
2023-01-13T02:16:03.951Z,992.99
2023-01-13T02:17:03.884Z,993.02
2023-01-13T02:18:03.878Z,993.00
2023-01-13T02:19:03.901Z,993.02
2023-01-13T02:20:03.878Z,992.98
2023-01-13T02:21:03.847Z,992.94
2023-01-13T02:22:03.843Z,992.92
2023-01-13T02:23:04.849Z,992.98
2023-01-13T02:24:03.832Z,992.95
2023-01-13T02:25:03.806Z,992.97
2023-01-13T02:26:03.802Z,992.99
2023-01-13T02:27:04.767Z,992.96
2023-01-13T02:28:04.806Z,992.87
2023-01-13T02:29:03.787Z,992.87
2023-01-13T02:30:03.766Z,992.90
2023-01-13T02:31:03.729Z,992.90
2023-01-13T02:32:03.724Z,992.90
2023-01-13T02:33:03.717Z,992.92
2023-01-13T02:34:03.700Z,992.88
2023-01-13T02:35:03.745Z,992.86
2023-01-13T02:36:03.684Z,992.89
2023-01-13T02:37:03.669Z,992.88
2023-01-13T02:38:03.655Z,992.89
2023-01-13T02:39:03.659Z,992.89
2023-01-13T02:40:03.631Z,992.87
2023-01-13T02:41:03.636Z,992.89
2023-01-13T02:42:04.606Z,992.93
2023-01-13T02:43:03.599Z,992.87
2023-01-13T02:44:03.591Z,992.90
2023-01-13T02:45:03.615Z,992.93
2023-01-13T02:46:03.644Z,992.90
2023-01-13T02:47:03.568Z,992.90
2023-01-13T02:48:03.555Z,992.88
2023-01-13T02:49:03.518Z,992.90
2023-01-13T02:50:03.534Z,992.91
2023-01-13T02:51:04.514Z,992.84
2023-01-13T02:52:03.524Z,992.76
2023-01-13T02:53:03.490Z,992.74
2023-01-13T02:54:03.492Z,992.78
2023-01-13T02:55:03.494Z,992.73
2023-01-13T02:56:03.486Z,992.68
2023-01-13T02:57:03.458Z,992.70
2023-01-13T02:58:03.447Z,992.68
2023-01-13T02:59:03.438Z,992.70
2023-01-13T03:00:03.412Z,992.70
2023-01-13T03:01:03.574Z,992.73
2023-01-13T03:02:04.620Z,992.67
2023-01-13T03:03:04.371Z,992.70
2023-01-13T03:04:03.371Z,992.68
2023-01-13T03:05:03.377Z,992.69
2023-01-13T03:06:03.362Z,992.49
2023-01-13T03:07:03.332Z,992.50
2023-01-13T03:08:03.354Z,992.66
2023-01-13T03:09:03.343Z,992.50
2023-01-13T03:10:03.296Z,992.60
2023-01-13T03:11:03.320Z,992.58
2023-01-13T03:12:03.280Z,992.53
2023-01-13T03:13:03.272Z,992.53
2023-01-13T03:14:04.294Z,992.58
2023-01-13T03:15:03.294Z,992.58
2023-01-13T03:16:03.260Z,992.54
2023-01-13T03:17:03.229Z,992.45
2023-01-13T03:18:04.238Z,992.52
2023-01-13T03:19:03.216Z,992.58
2023-01-13T03:20:03.205Z,992.57
2023-01-13T03:21:03.227Z,992.58
2023-01-13T03:22:03.169Z,992.60
2023-01-13T03:23:03.185Z,992.66
2023-01-13T03:24:03.164Z,992.58
2023-01-13T03:25:03.141Z,992.66
2023-01-13T03:26:03.149Z,992.60
2023-01-13T03:27:03.111Z,992.61
2023-01-13T03:28:03.134Z,992.61
2023-01-13T03:29:04.094Z,992.60
2023-01-13T03:30:03.092Z,992.59
2023-01-13T03:31:03.160Z,992.63
2023-01-13T03:32:03.080Z,992.66
2023-01-13T03:33:03.045Z,992.65
2023-01-13T03:34:04.077Z,992.68
2023-01-13T03:35:03.024Z,992.67
2023-01-13T03:36:03.031Z,992.63
2023-01-13T03:37:03.987Z,992.68
2023-01-13T03:38:03.029Z,992.70
2023-01-13T03:39:04.002Z,992.69
2023-01-13T03:40:03.021Z,992.72
2023-01-13T03:41:02.998Z,992.80
2023-01-13T03:42:02.945Z,992.74
2023-01-13T03:43:02.997Z,992.77
2023-01-13T03:44:03.935Z,992.76
2023-01-13T03:45:03.922Z,992.77
2023-01-13T03:46:02.975Z,992.70
2023-01-13T03:47:02.895Z,992.78
2023-01-13T03:48:02.923Z,992.78
2023-01-13T03:49:03.876Z,992.75
2023-01-13T03:50:02.870Z,992.81
2023-01-13T03:51:02.849Z,992.81
2023-01-13T03:52:02.847Z,992.81
2023-01-13T03:53:02.823Z,992.85
2023-01-13T03:54:02.887Z,992.82
2023-01-13T03:55:02.796Z,992.82
2023-01-13T03:56:03.811Z,992.84
2023-01-13T03:57:02.810Z,992.89
2023-01-13T03:58:02.799Z,992.92
2023-01-13T03:59:02.762Z,992.93
2023-01-13T04:00:02.761Z,992.92
2023-01-13T04:01:02.869Z,992.95
2023-01-13T04:02:04.003Z,992.95
2023-01-13T04:03:03.722Z,992.96
2023-01-13T04:04:02.741Z,992.89
2023-01-13T04:05:02.692Z,992.93
2023-01-13T04:06:02.707Z,992.94
2023-01-13T04:07:02.708Z,992.93
2023-01-13T04:08:02.672Z,992.91
2023-01-13T04:09:02.641Z,992.90
2023-01-13T04:10:02.658Z,992.89
2023-01-13T04:11:02.654Z,992.92
2023-01-13T04:12:02.620Z,992.96
2023-01-13T04:13:02.794Z,992.95
2023-01-13T04:14:02.629Z,992.93
2023-01-13T04:15:02.678Z,992.93
2023-01-13T04:16:02.595Z,992.96
2023-01-13T04:17:02.576Z,992.96
2023-01-13T04:18:03.532Z,992.94
2023-01-13T04:19:02.523Z,993.01
2023-01-13T04:20:02.555Z,993.05
2023-01-13T04:21:03.525Z,993.05
2023-01-13T04:22:02.492Z,992.99
2023-01-13T04:23:02.494Z,993.07
2023-01-13T04:24:02.484Z,993.05
2023-01-13T04:25:02.511Z,993.06
2023-01-13T04:26:02.467Z,993.05
2023-01-13T04:27:02.444Z,993.08
2023-01-13T04:28:03.439Z,993.02
2023-01-13T04:29:02.444Z,993.06
2023-01-13T04:30:02.405Z,993.00
2023-01-13T04:31:02.511Z,993.08
2023-01-13T04:32:02.418Z,993.06
2023-01-13T04:33:02.399Z,993.04
2023-01-13T04:34:02.395Z,993.05
2023-01-13T04:35:03.343Z,992.99
2023-01-13T04:36:02.342Z,993.02
2023-01-13T04:37:03.361Z,993.04
2023-01-13T04:38:02.339Z,993.02
2023-01-13T04:39:02.319Z,993.05
2023-01-13T04:40:02.315Z,992.98
2023-01-13T04:41:02.312Z,993.01
2023-01-13T04:42:02.291Z,993.01
2023-01-13T04:43:02.284Z,993.03
2023-01-13T04:44:02.265Z,993.02
2023-01-13T04:45:02.259Z,993.07
2023-01-13T04:46:02.286Z,993.00
2023-01-13T04:47:02.226Z,992.98
2023-01-13T04:48:03.298Z,992.99
2023-01-13T04:49:02.224Z,993.06
2023-01-13T04:50:03.225Z,993.01
2023-01-13T04:51:03.168Z,993.00
2023-01-13T04:52:02.181Z,992.97
2023-01-13T04:53:02.152Z,993.00
2023-01-13T04:54:02.153Z,992.96
2023-01-13T04:55:02.225Z,993.02
2023-01-13T04:56:02.147Z,992.97
2023-01-13T04:57:02.132Z,992.93
2023-01-13T04:58:02.110Z,992.95
2023-01-13T04:59:02.090Z,992.99
2023-01-13T05:00:03.128Z,993.01
2023-01-13T05:01:02.140Z,992.97
2023-01-13T05:02:02.124Z,992.98
2023-01-13T05:03:02.049Z,993.03
2023-01-13T05:04:02.020Z,992.96
2023-01-13T05:05:09.908Z,993.05
2023-01-13T05:06:02.047Z,992.96
2023-01-13T05:07:03.007Z,992.91
2023-01-13T05:08:01.996Z,992.96
2023-01-13T05:09:01.977Z,992.96
2023-01-13T05:10:01.969Z,992.90
2023-01-13T05:11:01.974Z,992.94
2023-01-13T05:12:02.943Z,992.95
2023-01-13T05:13:01.935Z,992.96
2023-01-13T05:14:01.938Z,992.92
2023-01-13T05:15:01.909Z,992.99
2023-01-13T05:16:02.074Z,993.00
2023-01-13T05:17:01.912Z,992.95
2023-01-13T05:18:01.887Z,992.90
2023-01-13T05:19:02.921Z,992.89
2023-01-13T05:20:02.875Z,992.94
2023-01-13T05:21:01.883Z,992.91
2023-01-13T05:22:01.839Z,992.92
2023-01-13T05:23:02.832Z,992.90
2023-01-13T05:24:02.804Z,992.90
2023-01-13T05:25:01.809Z,992.96
2023-01-13T05:26:02.804Z,992.89
2023-01-13T05:27:01.797Z,992.90
2023-01-13T05:28:01.780Z,992.91
2023-01-13T05:29:02.743Z,992.87
2023-01-13T05:30:01.776Z,992.84
2023-01-13T05:31:01.855Z,992.90
2023-01-13T05:32:01.757Z,992.87
2023-01-13T05:33:01.735Z,992.88
2023-01-13T05:34:01.699Z,992.87
2023-01-13T05:35:01.683Z,992.87
2023-01-13T05:36:02.686Z,992.80
2023-01-13T05:37:01.668Z,992.84
2023-01-13T05:38:01.665Z,992.84
2023-01-13T05:39:02.637Z,992.78
2023-01-13T05:40:01.703Z,992.84
2023-01-13T05:41:01.634Z,992.83
2023-01-13T05:42:01.643Z,992.86
2023-01-13T05:43:02.590Z,992.91
2023-01-13T05:44:01.626Z,992.84
2023-01-13T05:45:01.577Z,992.89
2023-01-13T05:46:01.785Z,992.84
2023-01-13T05:47:01.562Z,992.83
2023-01-13T05:48:01.595Z,992.86
2023-01-13T05:49:01.567Z,992.84
2023-01-13T05:50:01.550Z,992.78
2023-01-13T05:51:01.561Z,992.84
2023-01-13T05:52:01.531Z,992.85
2023-01-13T05:53:01.491Z,992.77
2023-01-13T05:54:01.497Z,992.81
2023-01-13T05:55:01.499Z,992.82
2023-01-13T05:56:01.463Z,992.86
2023-01-13T05:57:01.453Z,992.75
2023-01-13T05:58:02.436Z,992.82
2023-01-13T05:59:01.431Z,992.76
2023-01-13T06:00:02.449Z,992.77
2023-01-13T06:01:01.521Z,992.84
2023-01-13T06:02:01.382Z,992.80
2023-01-13T06:03:01.416Z,992.80
2023-01-13T06:04:01.487Z,992.77
2023-01-13T06:05:01.364Z,992.78
2023-01-13T06:06:01.358Z,992.75
2023-01-13T06:07:01.348Z,992.75
2023-01-13T06:08:01.325Z,992.68
2023-01-13T06:09:01.328Z,992.70
2023-01-13T06:10:02.296Z,992.72
2023-01-13T06:11:01.333Z,992.66
2023-01-13T06:12:01.303Z,992.61
2023-01-13T06:13:01.279Z,992.70
2023-01-13T06:14:01.248Z,992.63
2023-01-13T06:15:01.249Z,992.60
2023-01-13T06:16:01.310Z,992.68
2023-01-13T06:17:02.241Z,992.64
2023-01-13T06:18:02.233Z,992.62
2023-01-13T06:19:01.207Z,992.62
2023-01-13T06:20:01.228Z,992.62
2023-01-13T06:21:01.183Z,992.66
2023-01-13T06:22:01.164Z,992.66
2023-01-13T06:23:01.241Z,992.66
2023-01-13T06:24:01.155Z,992.66
2023-01-13T06:25:01.153Z,992.70
2023-01-13T06:26:01.171Z,992.67
2023-01-13T06:27:01.108Z,992.66
2023-01-13T06:28:01.107Z,992.59
2023-01-13T06:29:02.104Z,992.68
2023-01-13T06:30:01.082Z,992.72
2023-01-13T06:31:01.071Z,992.64
2023-01-13T06:32:01.091Z,992.72
2023-01-13T06:33:01.043Z,992.62
2023-01-13T06:34:01.024Z,992.65
2023-01-13T06:35:03.714Z,992.61
2023-01-13T06:36:01.058Z,992.65
2023-01-13T06:37:01.026Z,992.72
2023-01-13T06:38:01.002Z,992.68
2023-01-13T06:39:00.973Z,992.69
2023-01-13T06:40:00.995Z,992.70
2023-01-13T06:41:01.986Z,992.72
2023-01-13T06:42:00.965Z,992.68
2023-01-13T06:43:00.935Z,992.69
2023-01-13T06:44:00.923Z,992.84
2023-01-13T06:45:00.920Z,993.04
2023-01-13T06:46:00.979Z,993.18
2023-01-13T06:47:00.929Z,993.31
2023-01-13T06:48:00.912Z,993.27
2023-01-13T06:49:00.901Z,993.25
2023-01-13T06:50:00.850Z,993.24
2023-01-13T06:51:00.860Z,993.44
2023-01-13T06:52:00.864Z,993.40
2023-01-13T06:53:00.838Z,993.36
2023-01-13T06:54:01.861Z,993.38
2023-01-13T06:55:00.794Z,993.44
2023-01-13T06:56:00.815Z,993.42
2023-01-13T06:57:00.798Z,993.47
2023-01-13T06:58:00.760Z,993.43
2023-01-13T06:59:00.777Z,993.53
2023-01-13T07:00:00.773Z,993.49
2023-01-13T07:01:00.836Z,993.57
2023-01-13T07:02:00.883Z,993.61
2023-01-13T07:03:00.808Z,993.54
2023-01-13T07:04:01.734Z,993.42
2023-01-13T07:05:00.711Z,993.47
2023-01-13T07:06:00.714Z,993.54
2023-01-13T07:07:00.655Z,993.52
2023-01-13T07:08:00.691Z,993.60
2023-01-13T07:09:00.654Z,993.69
2023-01-13T07:10:01.671Z,993.69
2023-01-13T07:11:00.644Z,993.60
2023-01-13T07:12:00.661Z,993.60
2023-01-13T07:13:00.603Z,993.58
2023-01-13T07:14:00.610Z,993.60
2023-01-13T07:15:01.589Z,993.61
2023-01-13T07:16:00.672Z,993.68
2023-01-13T07:17:01.631Z,993.65
2023-01-13T07:18:00.539Z,993.64
2023-01-13T07:19:00.568Z,993.62
2023-01-13T07:20:00.558Z,993.78
2023-01-13T07:21:00.549Z,993.73
2023-01-13T07:22:00.521Z,993.75
2023-01-13T07:23:00.538Z,993.81
2023-01-13T07:24:00.502Z,993.82
2023-01-13T07:25:00.557Z,993.91
2023-01-13T07:26:00.459Z,993.93
2023-01-13T07:27:01.466Z,993.95
2023-01-13T07:28:00.448Z,993.91
2023-01-13T07:29:00.423Z,994.00
2023-01-13T07:30:00.575Z,994.03
2023-01-13T07:31:00.404Z,993.99
2023-01-13T07:32:00.496Z,994.01
2023-01-13T07:33:00.379Z,994.00
2023-01-13T07:34:01.379Z,994.13
2023-01-13T07:35:00.367Z,994.14
2023-01-13T07:36:00.355Z,994.16
2023-01-13T07:37:00.325Z,994.14
2023-01-13T07:38:00.326Z,994.21
2023-01-13T07:39:00.325Z,994.25
2023-01-13T07:40:01.327Z,994.11
2023-01-13T07:41:00.299Z,994.15
2023-01-13T07:42:00.286Z,994.24
2023-01-13T07:43:00.291Z,994.19
2023-01-13T07:44:00.388Z,994.22
2023-01-13T07:45:01.234Z,994.19
2023-01-13T07:46:00.302Z,994.15
2023-01-13T07:47:01.226Z,994.14
2023-01-13T07:48:00.224Z,994.17
2023-01-13T07:49:00.245Z,994.14
2023-01-13T07:50:01.192Z,994.12
2023-01-13T07:51:00.199Z,994.16
2023-01-13T07:52:00.163Z,994.24
2023-01-13T07:53:00.149Z,994.19
2023-01-13T07:54:00.148Z,994.21
2023-01-13T07:55:01.170Z,994.24
2023-01-13T07:56:00.154Z,994.22
2023-01-13T07:57:00.127Z,994.15
2023-01-13T07:58:00.165Z,994.24
2023-01-13T07:59:01.098Z,994.25
2023-01-13T08:00:01.078Z,994.29
2023-01-13T08:01:00.229Z,994.22
2023-01-13T08:02:00.391Z,994.28
2023-01-13T08:03:00.178Z,994.33
2023-01-13T08:04:00.043Z,994.23
2023-01-13T08:05:00.042Z,994.16
2023-01-13T08:06:01.012Z,994.17
2023-01-13T08:06:59.991Z,994.12
2023-01-13T08:08:00.008Z,994.04
2023-01-13T08:09:00.003Z,994.01
2023-01-13T08:09:59.973Z,994.06
2023-01-13T08:10:59.963Z,994.02
2023-01-13T08:12:00.974Z,993.94
2023-01-13T08:12:59.967Z,993.92
2023-01-13T08:13:59.936Z,993.88
2023-01-13T08:14:59.953Z,993.78
2023-01-13T08:15:59.923Z,993.78
2023-01-13T08:16:59.916Z,993.79
2023-01-13T08:17:59.892Z,993.82
2023-01-13T08:18:59.891Z,993.84
2023-01-13T08:19:59.892Z,993.77
2023-01-13T08:20:59.862Z,993.74
2023-01-13T08:21:59.830Z,993.70
2023-01-13T08:23:00.817Z,993.61
2023-01-13T08:24:00.832Z,993.61
2023-01-13T08:24:59.827Z,993.58
2023-01-13T08:25:59.820Z,993.62
2023-01-13T08:26:59.785Z,993.60
2023-01-13T08:28:00.847Z,993.45
2023-01-13T08:28:59.771Z,993.45
2023-01-13T08:29:59.772Z,993.42
2023-01-13T08:30:59.769Z,993.35
2023-01-13T08:31:59.733Z,993.31
2023-01-13T08:32:59.709Z,993.43
2023-01-13T08:33:59.712Z,993.60
2023-01-13T08:35:00.697Z,993.66
2023-01-13T08:35:59.719Z,993.76
2023-01-13T08:36:59.680Z,993.85
2023-01-13T08:37:59.671Z,994.00
2023-01-13T08:38:59.643Z,993.98
2023-01-13T08:39:59.643Z,994.15
2023-01-13T08:40:59.651Z,994.24
2023-01-13T08:41:59.649Z,994.29
2023-01-13T08:42:59.625Z,994.29
2023-01-13T08:43:59.605Z,994.26
2023-01-13T08:44:59.621Z,994.43
2023-01-13T08:45:59.647Z,994.44
2023-01-13T08:46:59.565Z,994.41
2023-01-13T08:47:59.595Z,994.46
2023-01-13T08:49:00.529Z,994.46
2023-01-13T08:49:59.563Z,994.49
2023-01-13T08:50:59.521Z,994.57
2023-01-13T08:51:59.507Z,994.56
2023-01-13T08:52:59.485Z,994.47
2023-01-13T08:53:59.503Z,994.53
2023-01-13T08:54:59.491Z,994.54
2023-01-13T08:55:59.487Z,994.50
2023-01-13T08:56:59.521Z,994.46
2023-01-13T08:58:14.153Z,994.55
2023-01-13T08:59:00.430Z,994.50
2023-01-13T09:00:00.444Z,994.43
2023-01-13T09:00:59.539Z,994.33
2023-01-13T09:01:59.606Z,994.27
2023-01-13T09:02:59.388Z,994.29
2023-01-13T09:03:59.444Z,994.29
2023-01-13T09:04:59.423Z,994.25
2023-01-13T09:05:59.370Z,994.17
2023-01-13T09:06:59.367Z,994.11
2023-01-13T09:07:59.328Z,994.02
2023-01-13T09:08:59.327Z,994.15
2023-01-13T09:09:59.328Z,994.20
2023-01-13T09:10:59.297Z,994.28
2023-01-13T09:11:59.290Z,994.27
2023-01-13T09:12:59.305Z,994.34
2023-01-13T09:13:59.273Z,994.39
2023-01-13T09:14:59.317Z,994.42
2023-01-13T09:15:59.337Z,994.51
2023-01-13T09:16:59.240Z,994.53
2023-01-13T09:18:00.223Z,994.69
2023-01-13T09:18:59.216Z,994.66
2023-01-13T09:19:59.196Z,994.69
2023-01-13T09:20:59.207Z,994.74
2023-01-13T09:21:59.177Z,994.70
2023-01-13T09:22:59.192Z,994.70
2023-01-13T09:23:59.677Z,994.66
2023-01-13T09:24:59.145Z,994.68
2023-01-13T09:25:59.132Z,994.64
2023-01-13T09:26:59.116Z,994.57
2023-01-13T09:27:59.110Z,994.58
2023-01-13T09:28:59.110Z,994.51
2023-01-13T09:29:59.106Z,994.53
2023-01-13T09:30:59.096Z,994.36
2023-01-13T09:31:59.105Z,994.29
2023-01-13T09:32:59.074Z,994.19
2023-01-13T09:33:59.047Z,994.06
2023-01-13T09:34:59.026Z,994.05
2023-01-13T09:35:59.061Z,994.04
2023-01-13T09:36:59.021Z,994.09
2023-01-13T09:37:59.056Z,993.99
2023-01-13T09:38:59.027Z,993.91
2023-01-13T09:39:58.978Z,993.89
2023-01-13T09:40:58.989Z,994.03
2023-01-13T09:41:58.946Z,994.06
2023-01-13T09:42:58.941Z,994.12
2023-01-13T09:43:58.983Z,994.10
2023-01-13T09:44:58.936Z,994.11
2023-01-13T09:45:58.969Z,994.12
2023-01-13T09:46:59.888Z,994.09
2023-01-13T09:47:58.910Z,994.10
2023-01-13T09:48:58.878Z,994.19
2023-01-13T09:49:59.870Z,994.16
2023-01-13T09:50:58.928Z,994.19
2023-01-13T09:51:58.856Z,994.23
2023-01-13T09:52:59.825Z,994.20
2023-01-13T09:53:59.810Z,994.22
2023-01-13T09:54:58.838Z,994.24
2023-01-13T09:55:58.823Z,994.32
2023-01-13T09:56:58.779Z,994.24
2023-01-13T09:57:58.776Z,994.28
2023-01-13T09:58:58.789Z,994.26
2023-01-13T09:59:58.757Z,994.25
2023-01-13T10:00:59.790Z,994.24
2023-01-13T10:01:59.737Z,994.28
2023-01-13T10:02:59.732Z,994.23
2023-01-13T10:03:58.740Z,994.25
2023-01-13T10:04:58.816Z,994.23
2023-01-13T10:05:59.693Z,994.22
2023-01-13T10:06:58.739Z,994.18
2023-01-13T10:07:58.680Z,994.15
2023-01-13T10:08:58.678Z,994.21
2023-01-13T10:09:58.650Z,994.27
2023-01-13T10:10:58.657Z,994.27
2023-01-13T10:11:58.616Z,994.26
2023-01-13T10:12:59.640Z,994.28
2023-01-13T10:13:58.622Z,994.29
2023-01-13T10:14:58.602Z,994.33
2023-01-13T10:16:02.749Z,994.32
2023-01-13T10:16:58.562Z,994.37
2023-01-13T10:17:58.551Z,994.35
2023-01-13T10:18:59.588Z,994.35
2023-01-13T10:19:58.648Z,994.38
2023-01-13T10:20:58.522Z,994.38
2023-01-13T10:21:58.533Z,994.40
2023-01-13T10:22:59.494Z,994.47
2023-01-13T10:23:59.507Z,994.49
2023-01-13T10:24:59.522Z,994.47
2023-01-13T10:25:59.528Z,994.50
2023-01-13T10:26:59.541Z,994.50
2023-01-13T10:27:58.469Z,994.43
2023-01-13T10:28:58.447Z,994.46
2023-01-13T10:29:58.437Z,994.40
2023-01-13T10:30:58.485Z,994.48
2023-01-13T10:31:58.410Z,994.41
2023-01-13T10:32:58.412Z,994.47
2023-01-13T10:33:58.406Z,994.44
2023-01-13T10:34:59.373Z,994.41
2023-01-13T10:35:58.401Z,994.51
2023-01-13T10:36:58.364Z,994.50
2023-01-13T10:37:58.336Z,994.50
2023-01-13T10:38:58.333Z,994.55
2023-01-13T10:39:58.347Z,994.56
2023-01-13T10:40:58.355Z,994.50
2023-01-13T10:41:58.310Z,994.57
2023-01-13T10:42:59.287Z,994.55
2023-01-13T10:43:58.286Z,994.62
2023-01-13T10:44:58.278Z,994.66
2023-01-13T10:45:58.272Z,994.66
2023-01-13T10:46:58.247Z,994.75
2023-01-13T10:47:58.232Z,994.66
2023-01-13T10:48:58.220Z,994.64
2023-01-13T10:49:58.223Z,994.68
2023-01-13T10:50:58.230Z,994.63
2023-01-13T10:51:58.281Z,994.64
2023-01-13T10:52:58.191Z,994.69
2023-01-13T10:53:59.191Z,994.65
2023-01-13T10:54:58.159Z,994.59
2023-01-13T10:55:58.148Z,994.63
2023-01-13T10:56:58.157Z,994.66
2023-01-13T10:57:58.146Z,994.69
2023-01-13T10:58:58.133Z,994.74
2023-01-13T10:59:58.107Z,994.74
2023-01-13T11:00:58.115Z,994.74
2023-01-13T11:01:58.118Z,994.75
2023-01-13T11:02:58.053Z,994.73
2023-01-13T11:03:58.064Z,994.82
2023-01-13T11:04:58.230Z,994.73
2023-01-13T11:05:58.033Z,994.70
2023-01-13T11:06:58.026Z,994.77
2023-01-13T11:07:58.055Z,994.71
2023-01-13T11:08:58.070Z,994.74
2023-01-13T11:09:57.998Z,994.74
2023-01-13T11:10:58.001Z,994.74
2023-01-13T11:11:57.992Z,994.70
2023-01-13T11:12:58.997Z,994.73
2023-01-13T11:13:57.952Z,994.71
2023-01-13T11:14:58.934Z,994.77
2023-01-13T11:15:57.988Z,994.80
2023-01-13T11:16:57.906Z,994.72
2023-01-13T11:17:57.924Z,994.68
2023-01-13T11:18:57.881Z,994.72
2023-01-13T11:19:57.906Z,994.67
2023-01-13T11:20:57.890Z,994.66
2023-01-13T11:21:57.863Z,994.76
2023-01-13T11:22:57.844Z,994.75
2023-01-13T11:23:57.852Z,994.64
2023-01-13T11:24:57.829Z,994.64
2023-01-13T11:25:57.821Z,994.63
2023-01-13T11:26:57.804Z,994.61
2023-01-13T11:27:57.772Z,994.68
2023-01-13T11:28:57.784Z,994.69
2023-01-13T11:29:57.780Z,994.61
2023-01-13T11:30:58.929Z,994.65
2023-01-13T11:31:57.738Z,994.58
2023-01-13T11:32:57.722Z,994.65
2023-01-13T11:33:57.721Z,994.66
2023-01-13T11:34:57.735Z,994.73
2023-01-13T11:35:57.700Z,994.61
2023-01-13T11:36:57.726Z,994.71
2023-01-13T11:37:58.673Z,994.59
2023-01-13T11:38:58.668Z,994.60
2023-01-13T11:39:57.714Z,994.63
2023-01-13T11:40:57.628Z,994.58
2023-01-13T11:41:57.637Z,994.60
2023-01-13T11:42:57.641Z,994.65
2023-01-13T11:43:57.635Z,994.60
2023-01-13T11:44:57.597Z,994.58
2023-01-13T11:45:57.602Z,994.61
2023-01-13T11:46:57.638Z,994.60
2023-01-13T11:47:58.580Z,994.58
2023-01-13T11:48:57.564Z,994.64
2023-01-13T11:49:57.538Z,994.64
2023-01-13T11:50:57.538Z,994.68
2023-01-13T11:51:58.510Z,994.59
2023-01-13T11:52:57.523Z,994.65
2023-01-13T11:53:57.510Z,994.73
2023-01-13T11:54:57.488Z,994.65
2023-01-13T11:55:57.477Z,994.64
2023-01-13T11:56:57.453Z,994.61
2023-01-13T11:57:57.467Z,994.71
2023-01-13T11:58:57.427Z,994.73
2023-01-13T11:59:58.416Z,994.73
2023-01-13T12:00:57.485Z,994.70
2023-01-13T12:01:57.442Z,994.73
2023-01-13T12:02:57.458Z,994.83
2023-01-13T12:03:58.428Z,994.79
2023-01-13T12:04:57.374Z,994.79
2023-01-13T12:05:57.363Z,994.88
2023-01-13T12:06:57.353Z,994.84
2023-01-13T12:07:58.364Z,994.83
2023-01-13T12:08:58.341Z,994.85
2023-01-13T12:09:58.323Z,994.91
2023-01-13T12:10:57.306Z,994.85
2023-01-13T12:11:57.334Z,994.84
2023-01-13T12:12:59.481Z,994.90
2023-01-13T12:13:58.280Z,994.88
2023-01-13T12:14:57.273Z,994.82
2023-01-13T12:15:57.277Z,994.83
2023-01-13T12:16:57.249Z,994.86
2023-01-13T12:17:58.221Z,994.85
2023-01-13T12:18:57.208Z,994.84
2023-01-13T12:19:57.210Z,994.78
2023-01-13T12:20:57.203Z,994.89
2023-01-13T12:21:57.183Z,994.78
2023-01-13T12:22:58.160Z,994.79
2023-01-13T12:23:57.146Z,994.81
2023-01-13T12:24:57.203Z,994.80
2023-01-13T12:25:57.141Z,994.80
2023-01-13T12:26:57.168Z,994.77
2023-01-13T12:27:57.135Z,994.65